sensor_id;sensor_type;location;lat;lon;timestamp;pressure;altitude;pressure_sealevel;temperature;humidity
76592;BME280;65481;47.600;19.682;2023-11-19T00:00:52;100847.19;;;0.66;100.00
76592;BME280;65481;47.600;19.682;2023-11-19T00:05:52;100839.22;;;0.68;100.00
76592;BME280;65481;47.600;19.682;2023-11-19T00:10:53;100848.19;;;0.73;100.00
76592;BME280;65481;47.600;19.682;2023-11-19T00:15:53;100844.06;;;0.81;100.00
76592;BME280;65481;47.600;19.682;2023-11-19T00:20:54;100830.47;;;0.69;100.00
76592;BME280;65481;47.600;19.682;2023-11-19T00:25:54;100837.91;;;0.64;100.00
76592;BME280;65481;47.600;19.682;2023-11-19T00:30:54;100848.66;;;0.69;100.00
76592;BME280;65481;47.600;19.682;2023-11-19T00:35:55;100844.00;;;0.72;100.00
76592;BME280;65481;47.600;19.682;2023-11-19T00:40:56;100847.97;;;0.67;100.00
76592;BME280;65481;47.600;19.682;2023-11-19T00:45:57;100847.13;;;0.48;100.00
76592;BME280;65481;47.600;19.682;2023-11-19T00:50:57;100841.00;;;0.21;100.00
76592;BME280;65481;47.600;19.682;2023-11-19T00:55:58;100840.31;;;-0.09;100.00
76592;BME280;65481;47.600;19.682;2023-11-19T01:00:58;100830.91;;;-0.10;100.00
76592;BME280;65481;47.600;19.682;2023-11-19T01:06:00;100821.34;;;-0.09;100.00
76592;BME280;65481;47.600;19.682;2023-11-19T01:11:02;100829.81;;;-0.07;100.00
76592;BME280;65481;47.600;19.682;2023-11-19T01:16:04;100819.03;;;-0.12;100.00
76592;BME280;65481;47.600;19.682;2023-11-19T01:21:05;100812.91;;;-0.21;100.00
76592;BME280;65481;47.600;19.682;2023-11-19T01:26:06;100834.06;;;-0.16;100.00
76592;BME280;65481;47.600;19.682;2023-11-19T01:31:14;100812.75;;;-0.10;100.00
76592;BME280;65481;47.600;19.682;2023-11-19T01:36:15;100812.75;;;-0.10;100.00
76592;BME280;65481;47.600;19.682;2023-11-19T01:41:15;100805.09;;;-0.11;100.00
76592;BME280;65481;47.600;19.682;2023-11-19T01:46:16;100803.91;;;-0.17;100.00
76592;BME280;65481;47.600;19.682;2023-11-19T01:51:17;100796.63;;;-0.13;100.00
76592;BME280;65481;47.600;19.682;2023-11-19T01:56:17;100807.25;;;-0.07;100.00
76592;BME280;65481;47.600;19.682;2023-11-19T02:01:18;100810.28;;;-0.11;100.00
76592;BME280;65481;47.600;19.682;2023-11-19T02:06:18;100796.28;;;-0.19;100.00
76592;BME280;65481;47.600;19.682;2023-11-19T02:11:19;100789.69;;;-0.13;100.00
76592;BME280;65481;47.600;19.682;2023-11-19T02:16:20;100781.78;;;-0.21;100.00
76592;BME280;65481;47.600;19.682;2023-11-19T02:21:20;100785.50;;;-0.24;100.00
76592;BME280;65481;47.600;19.682;2023-11-19T02:27:07;100791.38;;;-0.22;100.00
76592;BME280;65481;47.600;19.682;2023-11-19T02:31:48;100807.22;;;-0.25;100.00
76592;BME280;65481;47.600;19.682;2023-11-19T02:36:48;100783.63;;;-0.32;100.00
76592;BME280;65481;47.600;19.682;2023-11-19T02:41:50;100766.81;;;-0.27;100.00
76592;BME280;65481;47.600;19.682;2023-11-19T02:46:53;100762.91;;;-0.13;100.00
76592;BME280;65481;47.600;19.682;2023-11-19T02:51:53;100760.66;;;0.02;100.00
76592;BME280;65481;47.600;19.682;2023-11-19T02:56:54;100762.88;;;-0.04;100.00
76592;BME280;65481;47.600;19.682;2023-11-19T03:01:59;100748.19;;;-0.13;100.00
76592;BME280;65481;47.600;19.682;2023-11-19T03:07:01;100731.44;;;-0.19;100.00
76592;BME280;65481;47.600;19.682;2023-11-19T03:12:02;100739.50;;;-0.22;100.00
76592;BME280;65481;47.600;19.682;2023-11-19T03:17:03;100735.38;;;-0.24;100.00
76592;BME280;65481;47.600;19.682;2023-11-19T03:22:05;100727.38;;;-0.31;100.00
76592;BME280;65481;47.600;19.682;2023-11-19T03:27:05;100730.19;;;-0.24;100.00
76592;BME280;65481;47.600;19.682;2023-11-19T03:32:06;100704.66;;;-0.19;100.00
76592;BME280;65481;47.600;19.682;2023-11-19T03:37:07;100684.59;;;-0.17;100.00
76592;BME280;65481;47.600;19.682;2023-11-19T03:42:07;100723.88;;;-0.12;100.00
76592;BME280;65481;47.600;19.682;2023-11-19T03:47:08;100710.75;;;-0.10;100.00
76592;BME280;65481;47.600;19.682;2023-11-19T03:52:08;100703.31;;;-0.23;100.00
76592;BME280;65481;47.600;19.682;2023-11-19T03:57:09;100685.06;;;-0.32;100.00
76592;BME280;65481;47.600;19.682;2023-11-19T04:02:13;100677.97;;;-0.29;100.00
76592;BME280;65481;47.600;19.682;2023-11-19T04:07:13;100668.84;;;-0.34;100.00
76592;BME280;65481;47.600;19.682;2023-11-19T04:12:14;100667.28;;;-0.26;100.00
76592;BME280;65481;47.600;19.682;2023-11-19T04:17:14;100664.13;;;-0.20;100.00
76592;BME280;65481;47.600;19.682;2023-11-19T04:22:15;100653.78;;;-0.02;100.00
76592;BME280;65481;47.600;19.682;2023-11-19T04:27:15;100644.56;;;0.04;100.00
76592;BME280;65481;47.600;19.682;2023-11-19T04:32:16;100650.78;;;-0.07;100.00
76592;BME280;65481;47.600;19.682;2023-11-19T04:37:16;100623.00;;;-0.15;100.00
76592;BME280;65481;47.600;19.682;2023-11-19T04:42:16;100620.19;;;-0.22;100.00
76592;BME280;65481;47.600;19.682;2023-11-19T04:47:17;100638.34;;;-0.22;100.00
76592;BME280;65481;47.600;19.682;2023-11-19T04:52:17;100649.00;;;-0.07;100.00
76592;BME280;65481;47.600;19.682;2023-11-19T04:57:18;100668.06;;;0.02;100.00
76592;BME280;65481;47.600;19.682;2023-11-19T05:02:18;100666.06;;;-0.04;100.00
76592;BME280;65481;47.600;19.682;2023-11-19T05:07:19;100665.69;;;-0.09;100.00
76592;BME280;65481;47.600;19.682;2023-11-19T05:12:19;100667.31;;;-0.08;100.00
76592;BME280;65481;47.600;19.682;2023-11-19T05:17:20;100670.81;;;0.01;100.00
76592;BME280;65481;47.600;19.682;2023-11-19T05:22:21;100677.13;;;-0.02;100.00
76592;BME280;65481;47.600;19.682;2023-11-19T05:27:22;100679.63;;;-0.10;100.00
76592;BME280;65481;47.600;19.682;2023-11-19T05:32:24;100677.19;;;-0.12;100.00
76592;BME280;65481;47.600;19.682;2023-11-19T05:37:24;100678.22;;;-0.23;100.00
76592;BME280;65481;47.600;19.682;2023-11-19T05:42:25;100672.06;;;-0.22;100.00
76592;BME280;65481;47.600;19.682;2023-11-19T05:47:27;100680.34;;;-0.18;100.00
76592;BME280;65481;47.600;19.682;2023-11-19T05:52:28;100683.69;;;-0.08;100.00
76592;BME280;65481;47.600;19.682;2023-11-19T05:57:33;100686.31;;;0.10;100.00
76592;BME280;65481;47.600;19.682;2023-11-19T06:02:35;100690.69;;;0.10;100.00
76592;BME280;65481;47.600;19.682;2023-11-19T06:07:37;100698.34;;;0.11;100.00
76592;BME280;65481;47.600;19.682;2023-11-19T06:12:39;100689.66;;;0.21;100.00
76592;BME280;65481;47.600;19.682;2023-11-19T06:17:41;100689.66;;;0.39;100.00
76592;BME280;65481;47.600;19.682;2023-11-19T06:22:41;100667.53;;;0.53;100.00
76592;BME280;65481;47.600;19.682;2023-11-19T06:27:43;100654.59;;;0.61;100.00
76592;BME280;65481;47.600;19.682;2023-11-19T06:32:44;100664.97;;;0.79;100.00
76592;BME280;65481;47.600;19.682;2023-11-19T06:37:44;100652.97;;;0.86;100.00
76592;BME280;65481;47.600;19.682;2023-11-19T06:42:45;100657.75;;;0.91;100.00
76592;BME280;65481;47.600;19.682;2023-11-19T06:47:45;100638.13;;;1.05;100.00
76592;BME280;65481;47.600;19.682;2023-11-19T06:52:46;100635.78;;;1.20;100.00
76592;BME280;65481;47.600;19.682;2023-11-19T06:57:47;100630.94;;;1.33;100.00
76592;BME280;65481;47.600;19.682;2023-11-19T07:02:48;100644.00;;;1.50;100.00
76592;BME280;65481;47.600;19.682;2023-11-19T07:07:50;100633.81;;;1.65;100.00
76592;BME280;65481;47.600;19.682;2023-11-19T07:12:50;100633.53;;;1.85;100.00
76592;BME280;65481;47.600;19.682;2023-11-19T07:17:51;100632.75;;;2.09;100.00
76592;BME280;65481;47.600;19.682;2023-11-19T07:22:51;100636.97;;;2.43;100.00
76592;BME280;65481;47.600;19.682;2023-11-19T07:27:52;100638.13;;;3.13;100.00
76592;BME280;65481;47.600;19.682;2023-11-19T07:32:53;100648.19;;;3.64;100.00
76592;BME280;65481;47.600;19.682;2023-11-19T07:37:54;100628.38;;;3.78;100.00
76592;BME280;65481;47.600;19.682;2023-11-19T07:42:54;100629.03;;;3.49;100.00
76592;BME280;65481;47.600;19.682;2023-11-19T07:47:55;100629.78;;;3.26;100.00
76592;BME280;65481;47.600;19.682;2023-11-19T07:52:56;100636.88;;;3.01;100.00
76592;BME280;65481;47.600;19.682;2023-11-19T07:57:56;100637.41;;;2.88;100.00
76592;BME280;65481;47.600;19.682;2023-11-19T08:02:57;100625.34;;;2.87;100.00
76592;BME280;65481;47.600;19.682;2023-11-19T08:07:57;100602.59;;;2.72;100.00
76592;BME280;65481;47.600;19.682;2023-11-19T08:12:58;100591.84;;;2.67;100.00
76592;BME280;65481;47.600;19.682;2023-11-19T08:17:59;100584.34;;;2.72;100.00
76592;BME280;65481;47.600;19.682;2023-11-19T08:22:59;100581.56;;;2.82;100.00
76592;BME280;65481;47.600;19.682;2023-11-19T08:28:01;100582.06;;;3.49;100.00
76592;BME280;65481;47.600;19.682;2023-11-19T08:33:01;100568.81;;;3.82;100.00
76592;BME280;65481;47.600;19.682;2023-11-19T08:38:06;100545.78;;;3.62;100.00
76592;BME280;65481;47.600;19.682;2023-11-19T08:43:08;100529.47;;;3.60;100.00
76592;BME280;65481;47.600;19.682;2023-11-19T08:48:08;100534.56;;;4.00;100.00
76592;BME280;65481;47.600;19.682;2023-11-19T08:53:09;100577.97;;;4.54;99.18
76592;BME280;65481;47.600;19.682;2023-11-19T08:58:11;100559.00;;;5.12;97.47
76592;BME280;65481;47.600;19.682;2023-11-19T09:03:11;100550.84;;;4.85;95.92
76592;BME280;65481;47.600;19.682;2023-11-19T09:08:11;100545.59;;;5.00;94.98
76592;BME280;65481;47.600;19.682;2023-11-19T09:13:12;100547.06;;;4.88;94.95
76592;BME280;65481;47.600;19.682;2023-11-19T09:18:12;100559.78;;;4.76;94.32
76592;BME280;65481;47.600;19.682;2023-11-19T09:23:13;100541.56;;;4.68;94.55
76592;BME280;65481;47.600;19.682;2023-11-19T09:28:13;100558.41;;;4.50;94.26
76592;BME280;65481;47.600;19.682;2023-11-19T09:33:14;100578.94;;;4.23;94.96
76592;BME280;65481;47.600;19.682;2023-11-19T09:38:15;100569.88;;;3.73;96.44
76592;BME280;65481;47.600;19.682;2023-11-19T09:43:16;100552.56;;;3.48;97.45
76592;BME280;65481;47.600;19.682;2023-11-19T09:48:18;100543.63;;;3.43;97.93
76592;BME280;65481;47.600;19.682;2023-11-19T09:53:18;100549.81;;;3.42;99.01
76592;BME280;65481;47.600;19.682;2023-11-19T09:58:20;100544.34;;;3.37;99.66
76592;BME280;65481;47.600;19.682;2023-11-19T10:03:22;100528.69;;;3.37;100.00
76592;BME280;65481;47.600;19.682;2023-11-19T10:08:23;100482.41;;;3.30;100.00
76592;BME280;65481;47.600;19.682;2023-11-19T10:13:28;100514.69;;;3.29;100.00
76592;BME280;65481;47.600;19.682;2023-11-19T10:18:29;100507.66;;;3.30;100.00
76592;BME280;65481;47.600;19.682;2023-11-19T10:23:30;100502.44;;;3.30;100.00
76592;BME280;65481;47.600;19.682;2023-11-19T10:28:40;100489.25;;;3.31;100.00
76592;BME280;65481;47.600;19.682;2023-11-19T10:33:45;100494.16;;;3.26;100.00
76592;BME280;65481;47.600;19.682;2023-11-19T10:38:56;100510.66;;;3.27;100.00
76592;BME280;65481;47.600;19.682;2023-11-19T10:43:58;100501.94;;;3.35;100.00
76592;BME280;65481;47.600;19.682;2023-11-19T10:48:59;100477.13;;;3.39;100.00
76592;BME280;65481;47.600;19.682;2023-11-19T10:54:04;100475.16;;;3.41;100.00
76592;BME280;65481;47.600;19.682;2023-11-19T10:59:08;100468.72;;;3.52;100.00
76592;BME280;65481;47.600;19.682;2023-11-19T11:04:14;100475.31;;;3.62;100.00
76592;BME280;65481;47.600;19.682;2023-11-19T11:09:20;100467.34;;;3.64;100.00
76592;BME280;65481;47.600;19.682;2023-11-19T11:14:21;100459.78;;;3.69;100.00
76592;BME280;65481;47.600;19.682;2023-11-19T11:19:22;100445.47;;;3.65;100.00
76592;BME280;65481;47.600;19.682;2023-11-19T11:24:27;100436.63;;;3.66;100.00
76592;BME280;65481;47.600;19.682;2023-11-19T11:29:41;100430.91;;;3.71;100.00
76592;BME280;65481;47.600;19.682;2023-11-19T11:40:17;100418.19;;;3.68;100.00
76592;BME280;65481;47.600;19.682;2023-11-19T11:45:18;100417.66;;;3.72;100.00
76592;BME280;65481;47.600;19.682;2023-11-19T11:50:20;100405.44;;;3.73;100.00
76592;BME280;65481;47.600;19.682;2023-11-19T12:00:41;100394.19;;;3.72;100.00
76592;BME280;65481;47.600;19.682;2023-11-19T12:05:45;100369.50;;;3.60;100.00
76592;BME280;65481;47.600;19.682;2023-11-19T12:20:57;100340.53;;;3.70;100.00
76592;BME280;65481;47.600;19.682;2023-11-19T12:26:00;100346.31;;;3.65;100.00
76592;BME280;65481;47.600;19.682;2023-11-19T12:31:10;100346.75;;;3.69;100.00
76592;BME280;65481;47.600;19.682;2023-11-19T12:36:10;100330.28;;;3.68;100.00
76592;BME280;65481;47.600;19.682;2023-11-19T12:41:11;100319.75;;;3.61;100.00
76592;BME280;65481;47.600;19.682;2023-11-19T12:51:19;100308.13;;;3.79;100.00
76592;BME280;65481;47.600;19.682;2023-11-19T12:56:21;100290.50;;;3.81;100.00
76592;BME280;65481;47.600;19.682;2023-11-19T13:01:22;100278.72;;;3.85;100.00
76592;BME280;65481;47.600;19.682;2023-11-19T13:06:22;100267.53;;;3.91;100.00
76592;BME280;65481;47.600;19.682;2023-11-19T13:11:33;100261.84;;;3.88;100.00
76592;BME280;65481;47.600;19.682;2023-11-19T13:16:36;100255.56;;;3.82;100.00
76592;BME280;65481;47.600;19.682;2023-11-19T13:21:37;100257.56;;;3.80;100.00
76592;BME280;65481;47.600;19.682;2023-11-19T13:26:38;100252.69;;;3.77;100.00
76592;BME280;65481;47.600;19.682;2023-11-19T13:31:38;100271.88;;;3.84;100.00
76592;BME280;65481;47.600;19.682;2023-11-19T13:36:39;100257.56;;;3.80;100.00
76592;BME280;65481;47.600;19.682;2023-11-19T13:41:40;100250.97;;;3.84;100.00
76592;BME280;65481;47.600;19.682;2023-11-19T13:46:41;100248.38;;;3.84;100.00
76592;BME280;65481;47.600;19.682;2023-11-19T13:51:41;100260.50;;;3.92;100.00
76592;BME280;65481;47.600;19.682;2023-11-19T13:56:42;100249.34;;;3.98;100.00
76592;BME280;65481;47.600;19.682;2023-11-19T14:01:44;100260.41;;;4.00;100.00
76592;BME280;65481;47.600;19.682;2023-11-19T14:06:45;100247.97;;;4.02;100.00
76592;BME280;65481;47.600;19.682;2023-11-19T14:11:46;100243.94;;;4.00;100.00
76592;BME280;65481;47.600;19.682;2023-11-19T14:16:46;100233.84;;;3.97;100.00
76592;BME280;65481;47.600;19.682;2023-11-19T14:21:47;100224.53;;;3.87;100.00
76592;BME280;65481;47.600;19.682;2023-11-19T14:26:47;100232.09;;;3.82;100.00
76592;BME280;65481;47.600;19.682;2023-11-19T14:31:50;100216.63;;;3.81;100.00
76592;BME280;65481;47.600;19.682;2023-11-19T14:36:50;100215.78;;;3.80;100.00
76592;BME280;65481;47.600;19.682;2023-11-19T14:41:50;100205.72;;;3.77;100.00
76592;BME280;65481;47.600;19.682;2023-11-19T14:46:52;100203.50;;;3.74;100.00
76592;BME280;65481;47.600;19.682;2023-11-19T14:51:52;100198.28;;;3.74;100.00
76592;BME280;65481;47.600;19.682;2023-11-19T14:56:53;100209.78;;;3.79;100.00
76592;BME280;65481;47.600;19.682;2023-11-19T15:01:54;100201.19;;;3.86;100.00
76592;BME280;65481;47.600;19.682;2023-11-19T15:06:58;100215.88;;;3.87;100.00
76592;BME280;65481;47.600;19.682;2023-11-19T15:11:59;100219.06;;;4.04;100.00
76592;BME280;65481;47.600;19.682;2023-11-19T15:16:59;100230.66;;;4.16;100.00
76592;BME280;65481;47.600;19.682;2023-11-19T15:22:01;100219.03;;;4.19;100.00
76592;BME280;65481;47.600;19.682;2023-11-19T15:27:06;100220.16;;;4.31;100.00
76592;BME280;65481;47.600;19.682;2023-11-19T15:32:06;100209.13;;;4.36;100.00
76592;BME280;65481;47.600;19.682;2023-11-19T15:37:08;100212.16;;;4.39;100.00
76592;BME280;65481;47.600;19.682;2023-11-19T15:42:08;100231.53;;;4.45;100.00
76592;BME280;65481;47.600;19.682;2023-11-19T15:47:10;100230.09;;;4.43;100.00
76592;BME280;65481;47.600;19.682;2023-11-19T15:52:11;100218.59;;;4.37;100.00
76592;BME280;65481;47.600;19.682;2023-11-19T15:57:14;100220.84;;;4.40;100.00
76592;BME280;65481;47.600;19.682;2023-11-19T16:02:15;100227.84;;;4.39;100.00
76592;BME280;65481;47.600;19.682;2023-11-19T16:07:16;100226.22;;;4.38;100.00
76592;BME280;65481;47.600;19.682;2023-11-19T16:12:17;100214.66;;;4.26;100.00
76592;BME280;65481;47.600;19.682;2023-11-19T16:17:17;100199.31;;;4.38;100.00
76592;BME280;65481;47.600;19.682;2023-11-19T16:22:18;100187.75;;;4.26;100.00
76592;BME280;65481;47.600;19.682;2023-11-19T16:27:18;100178.16;;;4.11;100.00
76592;BME280;65481;47.600;19.682;2023-11-19T16:32:19;100189.84;;;4.15;100.00
76592;BME280;65481;47.600;19.682;2023-11-19T16:37:19;100205.41;;;4.23;100.00
76592;BME280;65481;47.600;19.682;2023-11-19T16:42:22;100214.50;;;4.28;100.00
76592;BME280;65481;47.600;19.682;2023-11-19T16:47:23;100197.44;;;4.32;100.00
76592;BME280;65481;47.600;19.682;2023-11-19T16:52:23;100189.44;;;4.33;100.00
76592;BME280;65481;47.600;19.682;2023-11-19T16:57:26;100188.59;;;4.33;100.00
76592;BME280;65481;47.600;19.682;2023-11-19T17:02:27;100178.63;;;4.36;100.00
76592;BME280;65481;47.600;19.682;2023-11-19T17:07:29;100166.84;;;4.26;100.00
76592;BME280;65481;47.600;19.682;2023-11-19T17:12:30;100163.63;;;4.23;100.00
76592;BME280;65481;47.600;19.682;2023-11-19T17:17:33;100134.78;;;4.10;100.00
76592;BME280;65481;47.600;19.682;2023-11-19T17:22:37;100130.19;;;3.90;100.00
76592;BME280;65481;47.600;19.682;2023-11-19T17:27:39;100132.97;;;3.89;100.00
76592;BME280;65481;47.600;19.682;2023-11-19T17:32:39;100126.44;;;4.00;100.00
76592;BME280;65481;47.600;19.682;2023-11-19T17:37:40;100136.78;;;4.08;100.00
76592;BME280;65481;47.600;19.682;2023-11-19T17:42:41;100149.50;;;4.18;100.00
76592;BME280;65481;47.600;19.682;2023-11-19T17:47:42;100149.50;;;4.18;100.00
76592;BME280;65481;47.600;19.682;2023-11-19T17:52:42;100140.91;;;4.24;100.00
76592;BME280;65481;47.600;19.682;2023-11-19T17:57:43;100118.72;;;4.13;100.00
76592;BME280;65481;47.600;19.682;2023-11-19T18:02:45;100119.53;;;4.14;100.00
76592;BME280;65481;47.600;19.682;2023-11-19T18:07:48;100131.41;;;4.16;100.00
76592;BME280;65481;47.600;19.682;2023-11-19T18:12:48;100121.84;;;4.23;100.00
76592;BME280;65481;47.600;19.682;2023-11-19T18:17:49;100127.31;;;4.29;100.00
76592;BME280;65481;47.600;19.682;2023-11-19T18:22:49;100125.28;;;4.31;100.00
76592;BME280;65481;47.600;19.682;2023-11-19T18:27:50;100126.91;;;4.32;100.00
76592;BME280;65481;47.600;19.682;2023-11-19T18:32:51;100125.44;;;4.22;100.00
76592;BME280;65481;47.600;19.682;2023-11-19T18:37:52;100132.19;;;4.10;100.00
76592;BME280;65481;47.600;19.682;2023-11-19T18:42:53;100104.97;;;4.04;100.00
76592;BME280;65481;47.600;19.682;2023-11-19T18:47:55;100098.22;;;4.10;100.00
76592;BME280;65481;47.600;19.682;2023-11-19T18:52:56;100070.50;;;4.09;100.00
76592;BME280;65481;47.600;19.682;2023-11-19T18:57:57;100073.59;;;3.98;100.00
76592;BME280;65481;47.600;19.682;2023-11-19T19:02:59;100072.22;;;4.02;100.00
76592;BME280;65481;47.600;19.682;2023-11-19T19:08:00;100078.06;;;4.04;100.00
76592;BME280;65481;47.600;19.682;2023-11-19T19:13:02;100075.63;;;4.02;100.00
76592;BME280;65481;47.600;19.682;2023-11-19T19:18:04;100073.53;;;3.91;100.00
76592;BME280;65481;47.600;19.682;2023-11-19T19:23:06;100064.78;;;3.77;100.00
76592;BME280;65481;47.600;19.682;2023-11-19T19:28:07;100081.25;;;3.77;100.00
76592;BME280;65481;47.600;19.682;2023-11-19T19:33:10;100051.94;;;3.75;100.00
76592;BME280;65481;47.600;19.682;2023-11-19T19:38:11;100056.84;;;3.63;100.00
76592;BME280;65481;47.600;19.682;2023-11-19T19:43:12;100051.25;;;3.67;100.00
76592;BME280;65481;47.600;19.682;2023-11-19T19:48:13;100040.75;;;3.82;100.00
76592;BME280;65481;47.600;19.682;2023-11-19T19:53:13;100049.00;;;3.85;100.00
76592;BME280;65481;47.600;19.682;2023-11-19T19:58:14;100072.28;;;3.87;100.00
76592;BME280;65481;47.600;19.682;2023-11-19T20:03:18;100073.78;;;3.74;100.00
76592;BME280;65481;47.600;19.682;2023-11-19T20:08:18;100085.09;;;3.60;100.00
76592;BME280;65481;47.600;19.682;2023-11-19T20:13:19;100089.25;;;3.54;100.00
76592;BME280;65481;47.600;19.682;2023-11-19T20:18:22;100085.66;;;3.55;100.00
76592;BME280;65481;47.600;19.682;2023-11-19T20:23:23;100092.72;;;3.61;100.00
76592;BME280;65481;47.600;19.682;2023-11-19T20:28:23;100089.97;;;3.63;100.00
76592;BME280;65481;47.600;19.682;2023-11-19T20:33:24;100085.22;;;3.73;100.00
76592;BME280;65481;47.600;19.682;2023-11-19T20:38:25;100083.94;;;3.84;100.00
76592;BME280;65481;47.600;19.682;2023-11-19T20:43:25;100087.78;;;3.88;100.00
76592;BME280;65481;47.600;19.682;2023-11-19T20:48:25;100085.81;;;3.90;100.00
76592;BME280;65481;47.600;19.682;2023-11-19T20:53:26;100078.81;;;3.98;100.00
76592;BME280;65481;47.600;19.682;2023-11-19T20:58:26;100073.38;;;3.92;100.00
76592;BME280;65481;47.600;19.682;2023-11-19T21:03:27;100060.63;;;3.83;100.00
76592;BME280;65481;47.600;19.682;2023-11-19T21:08:27;100068.22;;;3.77;100.00
76592;BME280;65481;47.600;19.682;2023-11-19T21:13:28;100063.72;;;3.71;100.00
76592;BME280;65481;47.600;19.682;2023-11-19T21:18:29;100066.34;;;3.71;100.00
76592;BME280;65481;47.600;19.682;2023-11-19T21:23:30;100070.75;;;3.71;100.00
76592;BME280;65481;47.600;19.682;2023-11-19T21:28:31;100057.72;;;3.71;100.00
76592;BME280;65481;47.600;19.682;2023-11-19T21:33:33;100043.97;;;3.62;100.00
76592;BME280;65481;47.600;19.682;2023-11-19T21:38:34;100060.94;;;3.73;100.00
76592;BME280;65481;47.600;19.682;2023-11-19T21:43:34;100046.34;;;3.78;100.00
76592;BME280;65481;47.600;19.682;2023-11-19T21:48:34;100068.00;;;3.79;100.00
76592;BME280;65481;47.600;19.682;2023-11-19T21:53:35;100074.53;;;3.90;100.00
76592;BME280;65481;47.600;19.682;2023-11-19T21:58:38;100073.97;;;3.94;100.00
76592;BME280;65481;47.600;19.682;2023-11-19T22:03:38;100063.53;;;3.94;100.00
76592;BME280;65481;47.600;19.682;2023-11-19T22:08:40;100050.97;;;4.05;100.00
76592;BME280;65481;47.600;19.682;2023-11-19T22:13:40;100038.97;;;4.11;100.00
76592;BME280;65481;47.600;19.682;2023-11-19T22:18:41;100040.78;;;4.10;100.00
76592;BME280;65481;47.600;19.682;2023-11-19T22:23:42;100055.88;;;4.15;100.00
76592;BME280;65481;47.600;19.682;2023-11-19T22:28:43;100043.44;;;4.17;100.00
76592;BME280;65481;47.600;19.682;2023-11-19T22:33:44;100037.75;;;4.13;100.00
76592;BME280;65481;47.600;19.682;2023-11-19T22:38:44;100023.03;;;4.05;100.00
76592;BME280;65481;47.600;19.682;2023-11-19T22:43:44;100029.84;;;4.00;100.00
76592;BME280;65481;47.600;19.682;2023-11-19T22:48:46;100024.63;;;4.00;100.00
76592;BME280;65481;47.600;19.682;2023-11-19T22:53:46;100019.97;;;3.95;100.00
76592;BME280;65481;47.600;19.682;2023-11-19T22:58:47;99995.66;;;3.94;100.00
76592;BME280;65481;47.600;19.682;2023-11-19T23:03:49;99993.81;;;3.88;100.00
76592;BME280;65481;47.600;19.682;2023-11-19T23:08:50;100011.03;;;3.83;100.00
76592;BME280;65481;47.600;19.682;2023-11-19T23:13:51;100022.53;;;3.88;100.00
76592;BME280;65481;47.600;19.682;2023-11-19T23:18:52;100039.59;;;3.91;100.00
76592;BME280;65481;47.600;19.682;2023-11-19T23:23:52;100046.88;;;3.96;100.00
76592;BME280;65481;47.600;19.682;2023-11-19T23:28:53;100040.19;;;3.86;100.00
76592;BME280;65481;47.600;19.682;2023-11-19T23:33:53;100037.19;;;3.89;100.00
76592;BME280;65481;47.600;19.682;2023-11-19T23:38:53;100054.06;;;3.93;100.00
76592;BME280;65481;47.600;19.682;2023-11-19T23:43:54;100033.44;;;3.99;100.00
76592;BME280;65481;47.600;19.682;2023-11-19T23:48:54;100032.06;;;4.03;100.00
76592;BME280;65481;47.600;19.682;2023-11-19T23:53:55;100003.78;;;4.06;100.00
76592;BME280;65481;47.600;19.682;2023-11-19T23:58:56;99987.44;;;3.98;100.00
